Time;durP1;ratioP1;P1;durP2;ratioP2;P2;SDS_P1;SDS_P2;PMS_P1;PMS_P2;Temp;Humidity;BMP_temperature;BMP_pressure;BME280_temperature;BME280_humidity;BME280_pressure;Samples;Min_cycle;Max_cycle;Signal;HPM_P1;HPM_P2
2022/04/20 00:02:09;;;;;;;13.80;8.77;;;;;;;;;;4965117;29;20183;-92
2022/04/20 00:04:35;;;;;;;13.30;8.68;;;;;;;;;;4962405;28;20197;-91
2022/04/20 00:07:01;;;;;;;14.25;8.50;;;;;;;;;;4977866;28;20193;-92
2022/04/20 00:09:27;;;;;;;12.60;7.97;;;;;;;;;;4963999;28;20192;-92
2022/04/20 00:11:53;;;;;;;12.85;7.55;;;;;;;;;;4978060;28;20188;-91
2022/04/20 00:14:19;;;;;;;12.25;7.82;;;;;;;;;;4980176;28;20207;-90
2022/04/20 00:16:45;;;;;;;13.63;9.63;;;;;;;;;;4965659;29;20188;-90
2022/04/20 00:19:11;;;;;;;13.95;8.77;;;;;;;;;;4977175;28;20196;-90
2022/04/20 00:21:37;;;;;;;14.20;8.27;;;;;;;;;;4978954;28;20180;-91
2022/04/20 00:24:03;;;;;;;19.98;9.15;;;;;;;;;;4978465;28;20192;-90
2022/04/20 00:26:29;;;;;;;24.80;9.85;;;;;;;;;;4977899;28;20179;-90
2022/04/20 00:28:55;;;;;;;15.90;9.38;;;;;;;;;;4963431;29;20191;-89
2022/04/20 00:31:21;;;;;;;14.25;9.30;;;;;;;;;;4976196;28;20754;-91
2022/04/20 00:33:47;;;;;;;11.93;7.60;;;;;;;;;;4976411;28;20212;-91
2022/04/20 00:36:13;;;;;;;14.30;9.30;;;;;;;;;;4962662;28;20467;-91
2022/04/20 00:38:39;;;;;;;13.35;8.07;;;;;;;;;;4976996;28;20295;-91
2022/04/20 00:41:06;;;;;;;12.98;8.13;;;;;;;;;;4963910;29;20179;-91
2022/04/20 00:43:32;;;;;;;15.65;9.07;;;;;;;;;;4977088;28;20188;-91
2022/04/20 00:46:00;;;;;;;16.95;8.90;;;;;;;;;;4977097;28;20263;-91
2022/04/20 00:48:26;;;;;;;15.52;10.80;;;;;;;;;;4976481;28;20199;-90
2022/04/20 00:50:52;;;;;;;16.52;9.73;;;;;;;;;;4961315;28;20212;-91
2022/04/20 00:53:18;;;;;;;17.30;10.27;;;;;;;;;;4979703;28;20195;-91
2022/04/20 00:55:44;;;;;;;12.95;8.32;;;;;;;;;;4979979;28;20231;-91
2022/04/20 00:58:10;;;;;;;10.07;8.65;;;;;;;;;;4976114;28;20192;-91
2022/04/20 01:00:36;;;;;;;13.10;8.23;;;;;;;;;;4976689;28;20243;-91
2022/04/20 01:03:02;;;;;;;14.40;9.98;;;;;;;;;;4979213;28;20189;-91
2022/04/20 01:05:28;;;;;;;24.00;11.40;;;;;;;;;;4977691;28;20591;-91
2022/04/20 01:07:55;;;;;;;17.23;10.70;;;;;;;;;;4964883;28;20188;-90
2022/04/20 01:10:21;;;;;;;15.73;9.20;;;;;;;;;;4981426;28;20451;-90
2022/04/20 01:12:47;;;;;;;15.77;11.38;;;;;;;;;;4982223;28;20185;-90
2022/04/20 01:15:14;;;;;;;14.82;9.55;;;;;;;;;;4980610;28;20299;-91
2022/04/20 01:17:40;;;;;;;15.15;10.15;;;;;;;;;;4979971;28;20189;-91
2022/04/20 01:20:15;;;;;;;16.63;10.30;;;;;;;;;;4967593;29;20179;-91
2022/04/20 01:22:44;;;;;;;18.35;10.93;;;;;;;;;;4967431;29;20180;-90
2022/04/20 01:25:12;;;;;;;18.80;9.82;;;;;;;;;;4979529;28;20196;-89
2022/04/20 01:27:39;;;;;;;17.08;10.52;;;;;;;;;;4981685;28;20188;-90
2022/04/20 01:30:06;;;;;;;20.60;12.13;;;;;;;;;;4980928;28;20188;-91
2022/04/20 01:32:32;;;;;;;12.52;10.00;;;;;;;;;;4981528;28;20231;-91
2022/04/20 01:34:59;;;;;;;13.80;10.45;;;;;;;;;;4965445;29;20204;-91
2022/04/20 01:37:24;;;;;;;13.10;8.68;;;;;;;;;;4981239;28;20216;-91
2022/04/20 01:39:50;;;;;;;15.05;8.80;;;;;;;;;;4979694;28;20188;-90
2022/04/20 01:42:17;;;;;;;24.55;11.50;;;;;;;;;;4981199;28;20181;-90
2022/04/20 01:44:43;;;;;;;13.23;10.02;;;;;;;;;;4979801;28;20189;-90
2022/04/20 01:47:09;;;;;;;20.43;11.13;;;;;;;;;;4984473;28;20192;-91
2022/04/20 01:49:35;;;;;;;16.98;10.82;;;;;;;;;;4979755;28;20444;-91
2022/04/20 01:52:01;;;;;;;17.35;10.18;;;;;;;;;;4981983;28;20651;-90
2022/04/20 01:54:27;;;;;;;14.90;10.20;;;;;;;;;;4966420;28;20204;-91
2022/04/20 01:56:53;;;;;;;16.65;9.73;;;;;;;;;;4960835;28;20189;-90
2022/04/20 01:59:19;;;;;;;13.65;9.85;;;;;;;;;;4967436;28;20179;-90
2022/04/20 02:04:31;;;;;;;18.33;11.55;;;;;;;;;;4964113;28;20285;-90
2022/04/20 02:06:57;;;;;;;17.00;10.65;;;;;;;;;;4979573;28;20227;-89
2022/04/20 02:09:24;;;;;;;20.63;11.57;;;;;;;;;;4979246;28;20199;-89
2022/04/20 02:11:50;;;;;;;17.40;10.90;;;;;;;;;;4978875;28;20185;-89
2022/04/20 02:14:16;;;;;;;20.50;12.25;;;;;;;;;;4982450;28;20172;-89
2022/04/20 02:16:42;;;;;;;20.83;13.15;;;;;;;;;;4982674;28;20228;-89
2022/04/20 02:19:08;;;;;;;26.48;14.35;;;;;;;;;;4964936;28;20185;-89
2022/04/20 02:21:34;;;;;;;25.02;14.07;;;;;;;;;;4980223;28;20251;-89
2022/04/20 02:24:00;;;;;;;23.97;13.00;;;;;;;;;;4979553;28;20216;-90
2022/04/20 02:26:26;;;;;;;19.75;12.70;;;;;;;;;;4957159;28;20444;-90
2022/04/20 02:28:52;;;;;;;23.42;11.90;;;;;;;;;;4968900;29;20184;-89
2022/04/20 02:31:18;;;;;;;18.98;11.40;;;;;;;;;;4979469;28;20302;-89
2022/04/20 02:33:44;;;;;;;21.13;14.18;;;;;;;;;;4977862;28;20195;-90
2022/04/20 02:36:10;;;;;;;21.05;13.32;;;;;;;;;;4965166;28;20240;-89
2022/04/20 02:38:36;;;;;;;22.95;14.95;;;;;;;;;;4980645;28;20274;-89
2022/04/20 02:41:02;;;;;;;20.42;13.23;;;;;;;;;;4967735;29;20168;-89
2022/04/20 02:43:28;;;;;;;28.45;17.00;;;;;;;;;;4980358;28;20614;-89
2022/04/20 02:45:58;;;;;;;22.13;13.93;;;;;;;;;;4978935;28;20207;-88
2022/04/20 02:48:24;;;;;;;26.42;16.67;;;;;;;;;;4963788;28;20200;-89
2022/04/20 02:50:50;;;;;;;27.05;16.48;;;;;;;;;;4978109;28;20200;-90
2022/04/20 02:53:16;;;;;;;22.05;13.02;;;;;;;;;;4981367;28;20181;-89
2022/04/20 02:55:42;;;;;;;27.45;16.00;;;;;;;;;;4980530;28;20750;-90
2022/04/20 02:58:08;;;;;;;21.43;14.70;;;;;;;;;;4978079;28;20188;-90
2022/04/20 03:00:34;;;;;;;25.35;16.27;;;;;;;;;;4979137;28;20479;-90
2022/04/20 03:03:00;;;;;;;25.08;15.88;;;;;;;;;;4981278;28;20189;-90
2022/04/20 03:05:26;;;;;;;25.88;15.05;;;;;;;;;;4979121;28;20184;-90
2022/04/20 03:07:52;;;;;;;29.58;17.95;;;;;;;;;;4979919;28;20195;-89
2022/04/20 03:10:18;;;;;;;27.88;18.48;;;;;;;;;;4980934;28;20188;-89
2022/04/20 03:12:44;;;;;;;23.90;15.07;;;;;;;;;;4965002;28;20652;-89
2022/04/20 03:15:10;;;;;;;28.77;16.73;;;;;;;;;;4979996;28;20211;-89
2022/04/20 03:17:36;;;;;;;24.77;14.97;;;;;;;;;;4980551;28;20189;-89
2022/04/20 03:20:02;;;;;;;43.92;19.02;;;;;;;;;;4981312;28;20428;-90
2022/04/20 03:22:28;;;;;;;23.83;14.50;;;;;;;;;;4978735;28;20207;-89
2022/04/20 03:24:54;;;;;;;28.20;16.73;;;;;;;;;;4980074;28;20195;-89
2022/04/20 03:27:21;;;;;;;23.95;15.38;;;;;;;;;;4963201;29;20531;-88
2022/04/20 03:29:47;;;;;;;26.05;15.75;;;;;;;;;;4978834;28;20271;-90
2022/04/20 03:32:13;;;;;;;25.02;16.10;;;;;;;;;;4981943;28;20228;-89
2022/04/20 03:34:40;;;;;;;24.35;14.75;;;;;;;;;;4977089;28;20247;-89
2022/04/20 03:37:06;;;;;;;26.10;15.23;;;;;;;;;;4979630;28;20218;-90
2022/04/20 03:39:33;;;;;;;30.63;15.02;;;;;;;;;;4979028;28;20288;-90
2022/04/20 03:41:59;;;;;;;24.15;15.23;;;;;;;;;;4977980;28;20185;-90
2022/04/20 03:44:25;;;;;;;25.73;17.20;;;;;;;;;;4980676;28;20184;-90
2022/04/20 03:46:51;;;;;;;26.77;16.05;;;;;;;;;;4979174;28;20723;-90
2022/04/20 03:49:18;;;;;;;26.70;16.00;;;;;;;;;;4977858;28;20212;-90
2022/04/20 03:51:45;;;;;;;28.42;15.55;;;;;;;;;;4977629;28;20207;-89
2022/04/20 03:54:11;;;;;;;28.65;16.77;;;;;;;;;;4979122;28;20183;-90
2022/04/20 03:59:22;;;;;;;25.00;14.32;;;;;;;;;;4963370;28;20203;-90
2022/04/20 04:01:49;;;;;;;29.08;16.58;;;;;;;;;;4979360;28;20180;-90
2022/04/20 04:04:15;;;;;;;28.73;16.58;;;;;;;;;;4978191;28;20188;-90
2022/04/20 04:06:41;;;;;;;29.20;15.68;;;;;;;;;;4976651;28;20184;-90
2022/04/20 04:09:07;;;;;;;29.02;16.67;;;;;;;;;;4977586;28;20181;-90
2022/04/20 04:11:33;;;;;;;26.98;16.48;;;;;;;;;;4979921;28;20192;-90
2022/04/20 04:14:00;;;;;;;25.45;15.95;;;;;;;;;;4981326;28;20190;-90
2022/04/20 04:16:26;;;;;;;23.48;15.73;;;;;;;;;;4976491;28;20212;-89
2022/04/20 04:18:52;;;;;;;27.33;16.60;;;;;;;;;;4976088;28;20195;-91
2022/04/20 04:21:18;;;;;;;28.95;16.55;;;;;;;;;;4977177;28;20180;-89
2022/04/20 04:23:44;;;;;;;22.40;16.13;;;;;;;;;;4977545;28;20552;-90
2022/04/20 04:26:10;;;;;;;30.70;16.60;;;;;;;;;;4981250;28;20446;-90
2022/04/20 04:28:36;;;;;;;33.05;19.98;;;;;;;;;;4964016;28;20192;-89
2022/04/20 04:31:02;;;;;;;22.45;14.95;;;;;;;;;;4978571;28;20231;-91
2022/04/20 04:33:28;;;;;;;27.58;17.05;;;;;;;;;;4963168;28;20188;-91
2022/04/20 04:35:54;;;;;;;28.80;16.42;;;;;;;;;;4975984;28;20277;-90
2022/04/20 04:38:20;;;;;;;24.98;16.67;;;;;;;;;;4964938;28;20234;-91
2022/04/20 04:40:46;;;;;;;28.08;17.27;;;;;;;;;;4980188;28;20176;-90
2022/04/20 04:43:12;;;;;;;24.83;16.43;;;;;;;;;;4976280;28;20606;-91
2022/04/20 04:48:41;;;;;;;30.77;17.70;;;;;;;;;;4961605;28;20224;-91
2022/04/20 04:51:08;;;;;;;30.38;16.20;;;;;;;;;;4977694;28;20200;-90
2022/04/20 04:53:34;;;;;;;23.98;14.32;;;;;;;;;;4962865;29;20552;-91
2022/04/20 04:56:00;;;;;;;30.85;15.98;;;;;;;;;;4963541;29;20752;-90
2022/04/20 04:58:26;;;;;;;26.05;15.90;;;;;;;;;;4977290;28;20196;-89
2022/04/20 05:00:53;;;;;;;28.15;15.88;;;;;;;;;;4976064;28;20223;-89
2022/04/20 05:03:19;;;;;;;26.48;16.33;;;;;;;;;;4976803;28;20669;-90
2022/04/20 05:05:46;;;;;;;30.90;17.10;;;;;;;;;;4962747;28;20185;-89
2022/04/20 05:08:12;;;;;;;25.73;15.60;;;;;;;;;;4981162;28;20192;-89
2022/04/20 05:10:38;;;;;;;25.65;16.10;;;;;;;;;;4978575;28;20251;-90
2022/04/20 05:13:04;;;;;;;25.00;15.77;;;;;;;;;;4962159;28;20199;-90
2022/04/20 05:15:30;;;;;;;22.15;14.45;;;;;;;;;;4976239;28;20282;-88
2022/04/20 05:17:56;;;;;;;26.67;15.90;;;;;;;;;;4975989;28;20200;-88
2022/04/20 05:20:22;;;;;;;30.02;16.95;;;;;;;;;;4979251;28;20267;-90
2022/04/20 05:22:48;;;;;;;26.30;15.25;;;;;;;;;;4978404;28;20204;-88
2022/04/20 05:25:15;;;;;;;26.13;15.45;;;;;;;;;;4978003;28;20199;-91
2022/04/20 05:27:41;;;;;;;27.50;17.35;;;;;;;;;;4977780;28;20185;-90
2022/04/20 05:30:08;;;;;;;24.80;16.20;;;;;;;;;;4979100;28;20185;-91
2022/04/20 05:32:34;;;;;;;27.15;15.85;;;;;;;;;;4978156;28;20259;-90
2022/04/20 05:35:01;;;;;;;27.33;16.00;;;;;;;;;;4977601;28;20436;-90
2022/04/20 05:42:59;;;;;;;30.98;17.05;;;;;;;;;;4959612;28;20227;-93
2022/04/20 05:45:25;;;;;;;24.10;15.65;;;;;;;;;;4973874;28;20248;-92
2022/04/20 05:47:51;;;;;;;26.88;18.02;;;;;;;;;;4968770;28;20188;-92
2022/04/20 05:50:17;;;;;;;30.00;18.27;;;;;;;;;;4961895;28;20189;-81
2022/04/20 05:52:43;;;;;;;26.42;17.17;;;;;;;;;;4975287;28;20512;-82
2022/04/20 05:55:09;;;;;;;31.73;18.88;;;;;;;;;;4971897;28;20219;-83
2022/04/20 05:57:36;;;;;;;30.23;18.88;;;;;;;;;;4959695;28;20200;-83
2022/04/20 06:00:02;;;;;;;26.50;16.05;;;;;;;;;;4962681;28;20267;-83
2022/04/20 06:02:29;;;;;;;28.73;20.42;;;;;;;;;;4974629;28;20176;-82
2022/04/20 06:04:55;;;;;;;30.58;19.02;;;;;;;;;;4962973;29;20185;-91
2022/04/20 06:07:21;;;;;;;35.45;21.30;;;;;;;;;;4957187;28;20189;-87
2022/04/20 06:09:47;;;;;;;34.83;21.90;;;;;;;;;;4978760;28;20188;-89
2022/04/20 06:12:14;;;;;;;39.57;24.53;;;;;;;;;;4958759;28;20188;-89
2022/04/20 06:14:40;;;;;;;30.83;20.45;;;;;;;;;;4974180;28;20483;-87
2022/04/20 06:17:07;;;;;;;40.10;23.67;;;;;;;;;;4974212;28;20643;-87
2022/04/20 06:19:33;;;;;;;41.40;24.55;;;;;;;;;;4956014;28;20456;-87
2022/04/20 06:21:59;;;;;;;41.03;25.90;;;;;;;;;;4951878;28;20182;-89
2022/04/20 06:24:25;;;;;;;37.07;22.60;;;;;;;;;;4969544;28;20212;-91
2022/04/20 06:26:51;;;;;;;43.40;24.13;;;;;;;;;;4955595;28;20449;-91
2022/04/20 06:29:17;;;;;;;32.63;22.10;;;;;;;;;;4979628;28;20447;-90
2022/04/20 06:31:45;;;;;;;34.77;24.17;;;;;;;;;;4981597;28;20400;-90
2022/04/20 06:34:11;;;;;;;39.83;24.35;;;;;;;;;;4978390;28;20440;-91
2022/04/20 06:36:37;;;;;;;39.63;25.50;;;;;;;;;;4978908;28;20228;-91
2022/04/20 06:39:03;;;;;;;33.22;22.48;;;;;;;;;;4981181;28;20219;-92
2022/04/20 06:41:29;;;;;;;38.88;23.95;;;;;;;;;;4965883;28;20187;-91
2022/04/20 06:43:57;;;;;;;36.60;23.35;;;;;;;;;;4965661;29;20220;-93
2022/04/20 06:46:23;;;;;;;51.22;25.13;;;;;;;;;;4979096;28;20203;-91
2022/04/20 06:48:49;;;;;;;35.83;23.55;;;;;;;;;;4978773;28;20188;-89
2022/04/20 06:51:15;;;;;;;39.70;24.90;;;;;;;;;;4980717;28;20192;-90
2022/04/20 06:59:10;;;;;;;32.78;22.92;;;;;;;;;;4962639;29;20188;-88
2022/04/20 07:01:36;;;;;;;37.83;22.20;;;;;;;;;;4977148;28;20556;-92
2022/04/20 07:04:02;;;;;;;31.33;21.83;;;;;;;;;;4974810;28;20184;-91
2022/04/20 07:06:28;;;;;;;33.75;20.95;;;;;;;;;;4977983;28;20195;-90
2022/04/20 07:08:55;;;;;;;33.00;21.73;;;;;;;;;;4982624;28;20188;-95
2022/04/20 07:11:21;;;;;;;33.28;21.50;;;;;;;;;;4982183;28;20188;-90
2022/04/20 07:13:47;;;;;;;29.10;20.15;;;;;;;;;;4961932;29;20767;-89
2022/04/20 07:16:13;;;;;;;33.33;21.85;;;;;;;;;;4979816;28;20235;-93
2022/04/20 07:18:39;;;;;;;37.00;22.63;;;;;;;;;;4977250;28;20184;-92
2022/04/20 07:21:05;;;;;;;32.20;22.33;;;;;;;;;;4962233;28;20267;-93
2022/04/20 07:23:31;;;;;;;35.28;23.25;;;;;;;;;;4979404;28;20431;-91
2022/04/20 07:25:57;;;;;;;38.63;22.10;;;;;;;;;;4982853;28;20180;-93
2022/04/20 07:28:23;;;;;;;37.47;22.98;;;;;;;;;;4979899;28;20185;-89
2022/04/20 07:30:49;;;;;;;30.88;20.33;;;;;;;;;;4980799;28;20188;-91
2022/04/20 07:33:16;;;;;;;34.27;20.47;;;;;;;;;;4987296;28;20705;-90
2022/04/20 07:35:45;;;;;;;30.08;20.73;;;;;;;;;;4981425;28;20475;-90
2022/04/20 07:38:12;;;;;;;37.30;23.02;;;;;;;;;;4985300;28;20267;-92
2022/04/20 07:40:38;;;;;;;27.73;20.25;;;;;;;;;;4985218;28;20215;-91
2022/04/20 07:43:04;;;;;;;32.17;20.20;;;;;;;;;;4987052;28;20188;-92
2022/04/20 07:45:30;;;;;;;31.80;20.88;;;;;;;;;;4995807;28;20184;-95
2022/04/20 07:47:57;;;;;;;29.63;18.83;;;;;;;;;;4986967;28;20269;-92
2022/04/20 07:50:24;;;;;;;33.35;20.60;;;;;;;;;;4985586;28;20190;-92
2022/04/20 07:52:57;;;;;;;32.33;20.98;;;;;;;;;;4984568;28;20181;-92
2022/04/20 07:55:23;;;;;;;32.33;19.33;;;;;;;;;;4982207;28;20315;-89
2022/04/20 07:57:50;;;;;;;28.13;20.50;;;;;;;;;;4984727;28;20183;-94
2022/04/20 08:00:17;;;;;;;30.77;20.40;;;;;;;;;;4987819;28;20186;-95
2022/04/20 08:02:44;;;;;;;33.45;22.50;;;;;;;;;;4972702;28;20207;-95
2022/04/20 08:05:11;;;;;;;25.98;19.25;;;;;;;;;;4990175;28;20239;-94
2022/04/20 08:07:37;;;;;;;28.98;19.02;;;;;;;;;;4987059;28;20219;-92
2022/04/20 08:10:06;;;;;;;28.85;18.90;;;;;;;;;;4985729;28;20192;-92
2022/04/20 08:12:39;;;;;;;28.45;18.85;;;;;;;;;;4982208;28;20183;-93
2022/04/20 08:15:05;;;;;;;28.13;18.85;;;;;;;;;;4978029;28;20877;-90
2022/04/20 08:17:32;;;;;;;26.23;18.55;;;;;;;;;;4978253;28;20175;-89
2022/04/20 08:19:58;;;;;;;26.38;20.05;;;;;;;;;;4967139;28;20184;-94
2022/04/20 08:22:24;;;;;;;28.83;19.35;;;;;;;;;;4978767;28;20188;-94
2022/04/20 08:24:51;;;;;;;26.60;19.10;;;;;;;;;;4976978;28;20188;-94
2022/04/20 08:27:17;;;;;;;27.00;18.60;;;;;;;;;;4978120;28;20660;-89
2022/04/20 08:29:45;;;;;;;27.27;18.30;;;;;;;;;;4976551;28;20287;-91
2022/04/20 08:32:11;;;;;;;24.38;18.33;;;;;;;;;;4984059;28;20227;-90
2022/04/20 08:34:37;;;;;;;28.48;16.55;;;;;;;;;;4981960;28;20211;-89
2022/04/20 08:37:03;;;;;;;27.00;18.75;;;;;;;;;;4981017;28;20225;-92
2022/04/20 08:39:29;;;;;;;28.55;19.25;;;;;;;;;;4985562;28;20178;-93
2022/04/20 08:41:55;;;;;;;26.97;18.27;;;;;;;;;;4979663;28;20208;-91
2022/04/20 08:44:28;;;;;;;22.20;17.02;;;;;;;;;;4986346;28;20434;-90
2022/04/20 08:47:00;;;;;;;23.27;17.95;;;;;;;;;;4986382;28;20262;-92
2022/04/20 08:49:26;;;;;;;25.00;16.38;;;;;;;;;;4985598;28;20192;-94
2022/04/20 08:54:37;;;;;;;23.92;16.25;;;;;;;;;;4981500;28;20480;-94
2022/04/20 08:57:17;;;;;;;24.02;14.93;;;;;;;;;;4987858;28;20197;-93
2022/04/20 08:59:44;;;;;;;23.90;17.38;;;;;;;;;;4970679;28;20165;-93
2022/04/20 09:02:12;;;;;;;26.58;16.75;;;;;;;;;;4982283;28;20225;-93
2022/04/20 09:04:38;;;;;;;29.33;16.67;;;;;;;;;;4985078;28;20199;-89
2022/04/20 09:07:06;;;;;;;21.25;17.48;;;;;;;;;;4984203;28;20245;-95
2022/04/20 09:09:33;;;;;;;21.55;13.65;;;;;;;;;;4983126;28;20190;-92
2022/04/20 09:11:59;;;;;;;26.27;15.82;;;;;;;;;;4985257;28;20187;-94
2022/04/20 09:14:25;;;;;;;21.27;15.27;;;;;;;;;;4984946;28;20180;-92
2022/04/20 09:16:55;;;;;;;21.67;16.00;;;;;;;;;;4970104;28;20186;-92
2022/04/20 09:19:28;;;;;;;23.73;16.00;;;;;;;;;;4983315;28;20187;-95
2022/04/20 09:21:55;;;;;;;22.45;16.42;;;;;;;;;;4983863;28;20191;-90
2022/04/20 09:24:21;;;;;;;18.92;15.15;;;;;;;;;;4979197;28;20245;-91
2022/04/20 09:26:54;;;;;;;20.25;16.73;;;;;;;;;;4983188;28;20195;-92
2022/04/20 09:29:20;;;;;;;20.45;13.23;;;;;;;;;;4985325;28;20198;-92
2022/04/20 09:31:50;;;;;;;17.55;14.32;;;;;;;;;;4964043;28;20226;-93
2022/04/20 09:34:25;;;;;;;17.35;13.40;;;;;;;;;;4982511;28;20207;-89
2022/04/20 09:36:54;;;;;;;23.20;15.00;;;;;;;;;;4987694;28;20214;-96
2022/04/20 09:39:21;;;;;;;19.40;15.57;;;;;;;;;;4987139;28;20184;-92
2022/04/20 09:41:59;;;;;;;18.40;13.38;;;;;;;;;;4997833;28;20183;-92
2022/04/20 09:44:35;;;;;;;17.45;13.20;;;;;;;;;;4988020;28;20262;-90
2022/04/20 09:49:54;;;;;;;18.17;12.00;;;;;;;;;;4990940;28;20198;-93
2022/04/20 09:52:20;;;;;;;19.02;11.63;;;;;;;;;;4988457;28;20191;-94
2022/04/20 09:54:53;;;;;;;17.40;10.85;;;;;;;;;;4983028;28;20208;-89
2022/04/20 09:57:23;;;;;;;14.07;10.30;;;;;;;;;;4974541;28;20235;-87
2022/04/20 10:00:04;;;;;;;18.80;10.60;;;;;;;;;;4991462;28;20195;-92
2022/04/20 10:02:37;;;;;;;12.07;8.65;;;;;;;;;;4995603;28;20179;-90
2022/04/20 10:05:03;;;;;;;11.80;9.48;;;;;;;;;;4985140;28;20282;-92
2022/04/20 10:07:29;;;;;;;8.40;7.20;;;;;;;;;;4989431;28;20188;-92
2022/04/20 10:09:56;;;;;;;13.70;8.07;;;;;;;;;;4981755;28;20206;-93
2022/04/20 10:12:23;;;;;;;10.65;8.30;;;;;;;;;;4986424;28;20179;-90
2022/04/20 10:17:45;;;;;;;10.75;7.85;;;;;;;;;;4985063;28;20223;-92
2022/04/20 10:20:12;;;;;;;11.50;8.35;;;;;;;;;;4987276;28;20219;-91
2022/04/20 10:22:39;;;;;;;10.35;7.15;;;;;;;;;;4986219;28;20180;-94
2022/04/20 10:25:11;;;;;;;9.38;7.88;;;;;;;;;;4985932;28;20215;-92
2022/04/20 10:27:56;;;;;;;9.77;7.80;;;;;;;;;;4985784;28;20215;-92
2022/04/20 10:30:34;;;;;;;7.57;6.65;;;;;;;;;;4988618;28;20195;-93
2022/04/20 10:33:06;;;;;;;8.90;6.28;;;;;;;;;;4972407;28;20224;-91
2022/04/20 10:35:35;;;;;;;11.93;7.72;;;;;;;;;;4983067;28;20657;-92
2022/04/20 10:38:11;;;;;;;8.50;6.95;;;;;;;;;;4986380;28;20183;-93
2022/04/20 10:41:03;;;;;;;10.23;6.20;;;;;;;;;;4982594;28;20214;-93
2022/04/20 10:43:35;;;;;;;9.95;7.22;;;;;;;;;;4950128;29;20216;-92
2022/04/20 10:46:11;;;;;;;9.73;7.30;;;;;;;;;;4949343;29;20556;-94
2022/04/20 10:48:55;;;;;;;8.65;7.55;;;;;;;;;;4965163;28;20195;-95
2022/04/20 10:51:35;;;;;;;9.80;7.25;;;;;;;;;;4968325;28;20232;-92
2022/04/20 10:54:20;;;;;;;9.70;8.38;;;;;;;;;;4946092;29;20245;-95
2022/04/20 10:56:49;;;;;;;8.52;7.32;;;;;;;;;;4962762;28;20228;-91
2022/04/20 10:59:15;;;;;;;8.82;7.93;;;;;;;;;;4950482;29;20186;-88
2022/04/20 11:01:59;;;;;;;8.75;6.82;;;;;;;;;;4949287;29;20715;-93
2022/04/20 11:04:46;;;;;;;9.45;7.30;;;;;;;;;;4956679;28;20212;-94
2022/04/20 11:07:14;;;;;;;6.90;5.68;;;;;;;;;;4948803;29;20196;-91
2022/04/20 11:09:44;;;;;;;5.78;4.47;;;;;;;;;;4950375;29;20720;-92
2022/04/20 11:21:02;;;;;;;4.75;3.30;;;;;;;;;;4967065;28;20203;-89
2022/04/20 11:23:47;;;;;;;5.45;3.58;;;;;;;;;;4985398;28;20181;-90
2022/04/20 11:26:14;;;;;;;3.75;3.35;;;;;;;;;;4985174;28;20599;-94
2022/04/20 11:28:41;;;;;;;3.75;2.92;;;;;;;;;;4985008;28;20643;-94
2022/04/20 11:31:07;;;;;;;4.65;2.80;;;;;;;;;;4985217;28;20302;-94
2022/04/20 11:33:34;;;;;;;3.67;2.93;;;;;;;;;;4982790;28;20208;-92
2022/04/20 11:36:00;;;;;;;5.75;3.40;;;;;;;;;;4982833;28;20533;-94
2022/04/20 11:38:46;;;;;;;4.23;2.67;;;;;;;;;;4987301;28;20183;-92
2022/04/20 11:41:13;;;;;;;4.97;2.92;;;;;;;;;;4986438;28;20931;-94
2022/04/20 11:43:40;;;;;;;4.40;3.58;;;;;;;;;;4983239;28;20191;-92
2022/04/20 11:46:08;;;;;;;5.78;3.03;;;;;;;;;;4984286;28;20198;-95
2022/04/20 11:48:38;;;;;;;3.22;2.92;;;;;;;;;;4983917;28;20226;-93
2022/04/20 11:51:07;;;;;;;3.25;2.78;;;;;;;;;;4983213;28;20256;-92
2022/04/20 11:53:35;;;;;;;4.10;3.00;;;;;;;;;;4980689;28;20190;-93
2022/04/20 11:56:02;;;;;;;4.82;3.03;;;;;;;;;;4984225;28;20210;-93
2022/04/20 11:58:28;;;;;;;6.18;2.72;;;;;;;;;;4984856;28;20205;-91
2022/04/20 12:01:01;;;;;;;3.65;2.92;;;;;;;;;;4981756;28;20182;-92
2022/04/20 12:03:40;;;;;;;4.07;2.55;;;;;;;;;;4981952;28;20646;-85
2022/04/20 12:06:07;;;;;;;2.97;1.98;;;;;;;;;;4982669;28;20221;-94
2022/04/20 12:08:34;;;;;;;3.50;2.65;;;;;;;;;;4980914;28;20191;-93
2022/04/20 12:11:08;;;;;;;1.92;1.73;;;;;;;;;;4984433;28;20179;-93
2022/04/20 12:13:34;;;;;;;2.50;1.87;;;;;;;;;;4989694;28;20199;-93
2022/04/20 12:16:16;;;;;;;3.67;2.53;;;;;;;;;;4980258;28;20470;-91
2022/04/20 12:18:44;;;;;;;3.80;2.47;;;;;;;;;;4984352;28;20520;-92
2022/04/20 12:21:28;;;;;;;2.83;2.50;;;;;;;;;;4984376;28;20455;-92
2022/04/20 12:23:54;;;;;;;3.93;2.20;;;;;;;;;;4968760;28;20440;-91
2022/04/20 12:26:28;;;;;;;4.60;2.10;;;;;;;;;;4985320;28;20393;-93
2022/04/20 12:29:01;;;;;;;3.47;2.23;;;;;;;;;;4983463;28;20898;-87
2022/04/20 12:31:27;;;;;;;2.73;2.47;;;;;;;;;;4979949;28;20650;-90
2022/04/20 12:34:06;;;;;;;2.87;2.57;;;;;;;;;;4981810;28;20446;-91
2022/04/20 12:36:49;;;;;;;3.67;2.33;;;;;;;;;;4981918;28;20478;-88
2022/04/20 12:39:27;;;;;;;3.40;2.40;;;;;;;;;;4984958;28;20474;-88
2022/04/20 12:42:13;;;;;;;2.30;2.10;;;;;;;;;;4970147;28;20441;-87
2022/04/20 12:44:46;;;;;;;3.23;2.00;;;;;;;;;;4965459;28;20440;-83
2022/04/20 12:47:14;;;;;;;2.40;2.20;;;;;;;;;;4984684;28;20419;-91
2022/04/20 12:49:41;;;;;;;3.37;2.83;;;;;;;;;;4981812;28;20417;-92
2022/04/20 12:52:13;;;;;;;3.33;2.20;;;;;;;;;;4982042;28;20443;-90
2022/04/20 12:54:39;;;;;;;2.40;2.20;;;;;;;;;;4979843;28;20490;-88
2022/04/20 13:03:04;;;;;;;3.97;2.40;;;;;;;;;;4982529;28;20410;-88
2022/04/20 13:05:36;;;;;;;3.83;2.60;;;;;;;;;;4978748;28;20919;-91
2022/04/20 13:08:03;;;;;;;4.27;2.20;;;;;;;;;;4985235;28;20808;-91
2022/04/20 13:10:30;;;;;;;2.60;2.33;;;;;;;;;;4986690;28;20438;-87
2022/04/20 13:12:56;;;;;;;3.70;2.23;;;;;;;;;;4986308;28;20415;-90
2022/04/20 13:15:23;;;;;;;1.70;1.60;;;;;;;;;;4983493;28;20462;-88
2022/04/20 13:17:49;;;;;;;3.10;1.77;;;;;;;;;;4985271;28;20559;-82
2022/04/20 13:20:18;;;;;;;2.90;2.33;;;;;;;;;;4986207;28;20514;-82
2022/04/20 13:22:45;;;;;;;2.17;1.30;;;;;;;;;;4985210;28;20419;-87
2022/04/20 13:27:56;;;;;;;3.80;2.27;;;;;;;;;;4985609;28;20536;-88
2022/04/20 13:30:24;;;;;;;2.70;1.77;;;;;;;;;;4983304;28;20441;-86
2022/04/20 13:32:50;;;;;;;1.90;1.80;;;;;;;;;;4984094;28;20468;-85
2022/04/20 13:35:16;;;;;;;2.73;1.43;;;;;;;;;;4985226;28;20542;-85
2022/04/20 13:37:42;;;;;;;1.50;1.20;;;;;;;;;;4982875;28;20424;-85
2022/04/20 13:40:08;;;;;;;1.70;1.60;;;;;;;;;;4984637;28;20447;-85
2022/04/20 13:42:34;;;;;;;3.13;1.37;;;;;;;;;;4987605;28;20443;-90
2022/04/20 13:45:00;;;;;;;3.33;1.40;;;;;;;;;;4984925;28;20449;-87
2022/04/20 13:47:26;;;;;;;2.50;1.67;;;;;;;;;;4988244;28;20421;-92
2022/04/20 13:49:52;;;;;;;1.83;1.30;;;;;;;;;;4986991;28;20435;-87
2022/04/20 13:52:18;;;;;;;1.50;1.30;;;;;;;;;;4986732;28;20438;-86
2022/04/20 13:54:44;;;;;;;1.47;1.37;;;;;;;;;;4985304;28;20449;-86
2022/04/20 13:57:10;;;;;;;1.20;1.10;;;;;;;;;;4984301;28;20402;-87
2022/04/20 13:59:44;;;;;;;3.90;1.60;;;;;;;;;;4984551;28;20447;-89
2022/04/20 14:02:11;;;;;;;1.50;1.23;;;;;;;;;;4987661;28;20478;-88
2022/04/20 14:04:37;;;;;;;1.30;1.20;;;;;;;;;;4983189;28;20442;-89
2022/04/20 14:07:04;;;;;;;1.30;1.20;;;;;;;;;;4985879;28;20901;-89
2022/04/20 14:09:30;;;;;;;2.57;1.20;;;;;;;;;;4984627;28;20415;-87
2022/04/20 14:11:56;;;;;;;1.47;1.30;;;;;;;;;;4983647;28;20435;-86
2022/04/20 14:14:22;;;;;;;1.30;1.10;;;;;;;;;;4984794;28;20435;-92
2022/04/20 14:16:48;;;;;;;1.43;1.27;;;;;;;;;;4986839;28;20438;-86
2022/04/20 14:19:14;;;;;;;1.70;1.60;;;;;;;;;;4984620;28;20425;-88
2022/04/20 14:21:41;;;;;;;3.10;1.40;;;;;;;;;;4985421;28;20437;-90
2022/04/20 14:24:07;;;;;;;2.97;1.90;;;;;;;;;;4987812;28;20414;-89
2022/04/20 14:32:09;;;;;;;1.77;1.43;;;;;;;;;;4987873;28;20526;-87
2022/04/20 14:34:36;;;;;;;1.40;1.30;;;;;;;;;;4985657;28;20443;-91
2022/04/20 14:37:06;;;;;;;2.40;1.20;;;;;;;;;;4983602;28;20413;-89
2022/04/20 14:39:32;;;;;;;2.60;1.30;;;;;;;;;;4986883;28;20442;-85
2022/04/20 14:41:58;;;;;;;3.50;1.43;;;;;;;;;;4984347;28;20443;-93
2022/04/20 14:44:26;;;;;;;3.23;1.37;;;;;;;;;;4985739;28;20434;-87
2022/04/20 14:46:52;;;;;;;1.40;1.30;;;;;;;;;;4986019;28;20593;-88
2022/04/20 14:49:18;;;;;;;1.37;0.93;;;;;;;;;;4983550;28;20477;-92
2022/04/20 14:51:46;;;;;;;2.50;1.10;;;;;;;;;;4982748;28;20443;-89
2022/04/20 14:54:13;;;;;;;1.73;0.93;;;;;;;;;;4982146;28;20530;-89
2022/04/20 14:56:39;;;;;;;1.37;1.20;;;;;;;;;;4983800;28;20495;-92
2022/04/20 14:59:06;;;;;;;1.80;1.50;;;;;;;;;;4985870;28;20424;-86
2022/04/20 15:01:32;;;;;;;1.20;1.10;;;;;;;;;;4982997;28;20441;-88
2022/04/20 15:03:59;;;;;;;3.20;1.30;;;;;;;;;;4982903;28;20452;-90
2022/04/20 15:06:25;;;;;;;1.20;1.10;;;;;;;;;;4982522;28;20439;-89
2022/04/20 15:08:52;;;;;;;1.37;1.20;;;;;;;;;;4984205;28;20608;-87
2022/04/20 15:11:17;;;;;;;3.77;1.20;;;;;;;;;;4985306;28;20431;-86
2022/04/20 15:13:45;;;;;;;4.80;1.60;;;;;;;;;;4984641;28;20440;-93
2022/04/20 15:16:11;;;;;;;1.30;1.20;;;;;;;;;;4981705;28;20475;-86
2022/04/20 15:18:38;;;;;;;3.23;1.20;;;;;;;;;;4985204;28;20450;-89
2022/04/20 15:21:04;;;;;;;1.50;1.17;;;;;;;;;;4983497;28;20454;-86